Lahaina, Hawaii
Current Conditions -  °F | °C
As of 9:54 AM on Saturday 25 Oct 2014 (Local Time) from PHOG Reporting Station
Smoke Smoke  
Wind Chill: 85°   Ceiling: Unl
Heat Index: 88°   Visibility: 10mi
Dew Point: 68°   Wind: 3mph
Humidity: 57%   Direction: NA
Pressure: 30.03"   Gusts: NA
Location:  20.88°N, 156.67°W
Report Text: PHOG 251954Z VRB03KT 10SM FU FEW025 29/20 A3003 RMK AO2 SLP174 T02940200 $
Loading
Personal Weather Stations






























Interactive Weather Map
Tropical Storm Tracking
New forecast layout! Learn more

10-Day Weather Forecast

Advertisements
Track Severe Weather on mobile